Time;durP1;ratioP1;P1;durP2;ratioP2;P2;SDS_P1;SDS_P2;PMS_P1;PMS_P2;Temp;Humidity;BMP_temperature;BMP_pressure;BME280_temperature;BME280_humidity;BME280_pressure;Samples;Min_cycle;Max_cycle;Signal;HPM_P1;HPM_P2
2021/09/09 00:01:13;;;;;;;4.05;2.65;;;;;;;;;;5009537;28;20614;-41
2021/09/09 00:03:39;;;;;;;3.80;3.15;;;;;;;;;;5014918;28;20064;-40
2021/09/09 00:06:04;;;;;;;11.57;3.47;;;;;;;;;;5014965;28;20140;-41
2021/09/09 00:08:29;;;;;;;4.55;4.03;;;;;;;;;;5016687;28;20036;-40
2021/09/09 00:10:55;;;;;;;4.88;3.47;;;;;;;;;;5016505;28;20018;-41
2021/09/09 00:13:20;;;;;;;5.68;3.53;;;;;;;;;;5011669;28;20453;-41
2021/09/09 00:15:45;;;;;;;3.60;2.95;;;;;;;;;;5014458;28;20030;-39
2021/09/09 00:18:11;;;;;;;6.43;4.03;;;;;;;;;;5015750;28;20033;-40
2021/09/09 00:20:36;;;;;;;4.78;3.20;;;;;;;;;;5008337;28;20440;-39
2021/09/09 00:23:01;;;;;;;6.07;5.20;;;;;;;;;;5022104;28;20056;-41
2021/09/09 00:25:27;;;;;;;8.82;4.43;;;;;;;;;;5015040;28;20032;-41
2021/09/09 00:27:52;;;;;;;6.38;4.30;;;;;;;;;;5013839;28;20029;-39
2021/09/09 00:30:17;;;;;;;5.05;2.95;;;;;;;;;;5017552;28;20045;-40
2021/09/09 00:32:43;;;;;;;4.20;2.80;;;;;;;;;;5021673;28;20681;-39
2021/09/09 00:35:08;;;;;;;3.00;2.65;;;;;;;;;;5020133;28;20554;-41
2021/09/09 00:37:33;;;;;;;7.38;4.60;;;;;;;;;;5026185;28;20022;-41
2021/09/09 00:39:59;;;;;;;5.10;3.53;;;;;;;;;;5022133;28;20035;-40
2021/09/09 00:42:24;;;;;;;4.03;3.45;;;;;;;;;;5017011;28;20525;-42
2021/09/09 00:44:49;;;;;;;4.20;3.20;;;;;;;;;;5012823;28;20025;-41
2021/09/09 00:47:15;;;;;;;6.95;3.67;;;;;;;;;;5014626;28;20441;-39
2021/09/09 00:49:41;;;;;;;7.65;4.55;;;;;;;;;;5020094;28;20828;-41
2021/09/09 00:52:10;;;;;;;3.88;3.47;;;;;;;;;;5020112;28;20373;-41
2021/09/09 00:54:36;;;;;;;4.43;3.17;;;;;;;;;;5023823;28;20060;-40
2021/09/09 00:57:02;;;;;;;5.55;4.20;;;;;;;;;;5016864;28;20021;-39
2021/09/09 00:59:29;;;;;;;10.18;3.78;;;;;;;;;;5025513;28;20025;-39
2021/09/09 01:01:54;;;;;;;22.05;3.75;;;;;;;;;;5019284;28;20026;-39
2021/09/09 01:04:22;;;;;;;5.13;4.28;;;;;;;;;;5017939;28;20177;-39
2021/09/09 01:06:47;;;;;;;13.60;4.78;;;;;;;;;;5024159;28;20021;-39
2021/09/09 01:09:13;;;;;;;6.93;4.05;;;;;;;;;;5011507;28;20034;-39
2021/09/09 01:11:38;;;;;;;6.68;2.70;;;;;;;;;;5016225;28;20104;-39
2021/09/09 01:14:05;;;;;;;17.30;3.60;;;;;;;;;;5023122;28;20022;-40
2021/09/09 01:16:30;;;;;;;5.25;3.67;;;;;;;;;;5021715;28;20568;-40
2021/09/09 01:18:55;;;;;;;9.65;3.08;;;;;;;;;;5022240;28;20022;-39
2021/09/09 01:21:21;;;;;;;5.72;3.22;;;;;;;;;;5020346;28;20037;-39
2021/09/09 01:23:48;;;;;;;8.60;4.75;;;;;;;;;;5015397;28;20025;-39
2021/09/09 01:26:14;;;;;;;4.90;3.85;;;;;;;;;;5017575;28;20393;-40
2021/09/09 01:28:39;;;;;;;6.35;3.05;;;;;;;;;;5018212;28;20017;-39
2021/09/09 01:31:04;;;;;;;3.08;2.83;;;;;;;;;;5020700;28;20378;-39
2021/09/09 01:33:30;;;;;;;3.70;3.30;;;;;;;;;;5022938;28;20510;-39
2021/09/09 01:35:55;;;;;;;4.93;2.72;;;;;;;;;;5019506;28;20473;-39
2021/09/09 01:38:21;;;;;;;4.70;3.85;;;;;;;;;;5017590;28;20588;-39
2021/09/09 01:40:46;;;;;;;4.30;3.17;;;;;;;;;;5015424;28;20018;-39
2021/09/09 01:43:12;;;;;;;11.23;3.50;;;;;;;;;;5019468;28;20624;-38
2021/09/09 01:45:37;;;;;;;4.65;3.95;;;;;;;;;;5012651;28;20580;-40
2021/09/09 01:48:02;;;;;;;6.88;3.15;;;;;;;;;;5016877;28;20072;-39
2021/09/09 01:50:28;;;;;;;4.50;3.45;;;;;;;;;;5016557;28;20049;-39
2021/09/09 01:52:53;;;;;;;6.40;2.88;;;;;;;;;;5025376;28;20508;-42
2021/09/09 01:55:18;;;;;;;5.95;4.03;;;;;;;;;;5017508;28;20048;-40
2021/09/09 01:57:44;;;;;;;3.38;3.08;;;;;;;;;;5020815;28;20365;-40
2021/09/09 02:00:09;;;;;;;4.38;3.95;;;;;;;;;;5016095;28;20033;-39
2021/09/09 02:02:35;;;;;;;5.72;3.47;;;;;;;;;;5019630;28;20372;-40
2021/09/09 02:05:00;;;;;;;4.20;3.45;;;;;;;;;;5017841;28;20454;-39
2021/09/09 02:07:25;;;;;;;3.90;3.13;;;;;;;;;;5019770;28;20068;-39
2021/09/09 02:09:50;;;;;;;5.63;3.75;;;;;;;;;;5016277;28;20025;-39
2021/09/09 02:12:16;;;;;;;5.65;3.28;;;;;;;;;;5018080;28;20469;-39
2021/09/09 02:14:41;;;;;;;5.43;3.85;;;;;;;;;;5019595;28;20077;-39
2021/09/09 02:17:07;;;;;;;7.47;4.25;;;;;;;;;;5017768;28;20022;-39
2021/09/09 02:19:33;;;;;;;5.97;4.15;;;;;;;;;;5014222;28;20034;-39
2021/09/09 02:21:58;;;;;;;6.95;3.95;;;;;;;;;;5015408;28;20029;-41
2021/09/09 02:24:24;;;;;;;6.65;4.20;;;;;;;;;;5018787;28;20108;-39
2021/09/09 02:26:49;;;;;;;7.72;4.65;;;;;;;;;;5021460;28;20045;-40
2021/09/09 02:29:15;;;;;;;4.88;4.38;;;;;;;;;;5018888;28;20030;-40
2021/09/09 02:31:40;;;;;;;8.32;4.45;;;;;;;;;;5012055;28;20036;-43
2021/09/09 02:34:05;;;;;;;6.50;3.33;;;;;;;;;;5014885;28;20439;-40
2021/09/09 02:36:32;;;;;;;7.78;4.47;;;;;;;;;;5018771;28;20528;-40
2021/09/09 02:38:58;;;;;;;7.70;6.53;;;;;;;;;;5023205;28;20032;-40
2021/09/09 02:41:23;;;;;;;4.53;4.13;;;;;;;;;;5017098;28;20242;-41
2021/09/09 02:43:48;;;;;;;5.93;4.65;;;;;;;;;;5018983;28;20025;-40
2021/09/09 02:46:13;;;;;;;6.82;4.88;;;;;;;;;;5015827;28;20037;-39
2021/09/09 02:48:39;;;;;;;6.82;4.38;;;;;;;;;;5015675;28;20030;-40
2021/09/09 02:51:04;;;;;;;5.80;4.28;;;;;;;;;;5018605;28;20612;-40
2021/09/09 02:53:29;;;;;;;4.93;4.10;;;;;;;;;;5018340;28;20504;-40
2021/09/09 02:55:55;;;;;;;5.13;4.20;;;;;;;;;;5017399;28;20033;-41
2021/09/09 02:58:20;;;;;;;6.05;3.75;;;;;;;;;;5019884;28;20022;-39
2021/09/09 03:00:45;;;;;;;15.40;4.03;;;;;;;;;;5017493;28;20021;-40
2021/09/09 03:03:10;;;;;;;7.03;3.75;;;;;;;;;;5016646;28;20046;-42
2021/09/09 03:05:36;;;;;;;7.50;4.88;;;;;;;;;;5013700;28;20121;-42
2021/09/09 03:08:01;;;;;;;6.22;4.43;;;;;;;;;;5018779;28;20025;-41
2021/09/09 03:10:26;;;;;;;5.78;3.22;;;;;;;;;;5017479;28;20495;-40
2021/09/09 03:12:52;;;;;;;9.93;5.15;;;;;;;;;;5019547;28;20025;-40
2021/09/09 03:15:17;;;;;;;5.30;3.78;;;;;;;;;;5015415;28;20037;-40
2021/09/09 03:17:42;;;;;;;3.90;2.65;;;;;;;;;;5015889;28;20021;-42
2021/09/09 03:20:08;;;;;;;4.63;3.65;;;;;;;;;;5017899;28;20104;-41
2021/09/09 03:22:33;;;;;;;5.13;4.32;;;;;;;;;;5020914;28;20574;-40
2021/09/09 03:24:58;;;;;;;6.32;3.38;;;;;;;;;;5019268;28;20025;-42
2021/09/09 03:27:24;;;;;;;3.80;3.40;;;;;;;;;;5021549;28;20025;-40
2021/09/09 03:29:49;;;;;;;3.90;3.53;;;;;;;;;;5016966;28;20499;-40
2021/09/09 03:32:14;;;;;;;7.57;5.45;;;;;;;;;;5018886;28;20017;-40
2021/09/09 03:34:40;;;;;;;4.05;3.63;;;;;;;;;;5017707;28;20109;-39
2021/09/09 03:37:05;;;;;;;7.13;3.63;;;;;;;;;;5013210;28;20571;-39
2021/09/09 03:39:30;;;;;;;3.90;3.50;;;;;;;;;;5019501;28;20017;-40
2021/09/09 03:41:56;;;;;;;5.15;3.22;;;;;;;;;;5013940;28;20113;-43
2021/09/09 03:44:21;;;;;;;9.60;4.78;;;;;;;;;;5016195;28;20025;-39
2021/09/09 03:46:46;;;;;;;3.97;2.95;;;;;;;;;;5013474;28;20018;-41
2021/09/09 03:49:12;;;;;;;4.53;3.63;;;;;;;;;;5016884;28;20022;-39
2021/09/09 03:51:37;;;;;;;7.60;4.05;;;;;;;;;;5010034;28;20021;-40
2021/09/09 03:54:02;;;;;;;6.72;4.60;;;;;;;;;;5012240;28;20029;-41
2021/09/09 03:56:27;;;;;;;5.10;3.90;;;;;;;;;;5014690;28;20128;-42
2021/09/09 03:58:53;;;;;;;5.63;3.20;;;;;;;;;;5016484;28;20052;-43
2021/09/09 04:01:18;;;;;;;5.18;3.63;;;;;;;;;;5013385;28;20072;-41
2021/09/09 04:03:46;;;;;;;6.40;3.92;;;;;;;;;;5017829;28;20057;-40
2021/09/09 04:06:11;;;;;;;3.78;2.88;;;;;;;;;;5014981;28;20037;-39
2021/09/09 04:08:37;;;;;;;4.10;2.65;;;;;;;;;;5016176;28;20091;-42
2021/09/09 04:11:02;;;;;;;4.28;3.88;;;;;;;;;;5021484;28;20021;-41
2021/09/09 04:13:27;;;;;;;7.10;4.10;;;;;;;;;;5019864;28;20021;-41
2021/09/09 04:15:52;;;;;;;4.22;3.55;;;;;;;;;;5014546;28;20500;-39
2021/09/09 04:18:18;;;;;;;4.72;3.45;;;;;;;;;;5019470;28;20075;-40
2021/09/09 04:20:43;;;;;;;4.55;3.53;;;;;;;;;;5020095;28;20026;-40
2021/09/09 04:23:08;;;;;;;6.43;5.18;;;;;;;;;;5011307;28;20493;-40
2021/09/09 04:25:34;;;;;;;7.30;3.08;;;;;;;;;;5019934;28;20677;-40
2021/09/09 04:27:59;;;;;;;4.95;3.78;;;;;;;;;;5021110;28;20030;-42
2021/09/09 04:30:24;;;;;;;5.25;3.75;;;;;;;;;;5017957;28;20026;-40
2021/09/09 04:32:50;;;;;;;7.75;3.38;;;;;;;;;;5020070;28;20037;-41
2021/09/09 04:35:15;;;;;;;4.68;3.83;;;;;;;;;;5013278;28;20022;-40
2021/09/09 04:37:40;;;;;;;4.03;3.50;;;;;;;;;;5008061;28;20405;-39
2021/09/09 04:40:06;;;;;;;6.88;5.35;;;;;;;;;;5010655;28;20469;-40
2021/09/09 04:42:31;;;;;;;4.35;3.85;;;;;;;;;;5017450;28;20018;-44
2021/09/09 04:44:56;;;;;;;5.70;4.05;;;;;;;;;;5023498;28;20049;-44
2021/09/09 04:47:22;;;;;;;6.63;5.30;;;;;;;;;;5016768;28;20051;-43
2021/09/09 04:49:47;;;;;;;6.40;3.65;;;;;;;;;;5021118;28;20179;-42
2021/09/09 04:52:12;;;;;;;4.45;3.80;;;;;;;;;;5016336;28;20030;-45
2021/09/09 04:54:38;;;;;;;5.00;4.50;;;;;;;;;;5016170;28;20091;-40
2021/09/09 04:57:04;;;;;;;6.90;4.78;;;;;;;;;;5019766;28;20033;-42
2021/09/09 04:59:29;;;;;;;4.38;3.35;;;;;;;;;;5018387;28;20649;-40
2021/09/09 05:01:54;;;;;;;4.47;3.67;;;;;;;;;;5014780;28;20088;-42
2021/09/09 05:04:20;;;;;;;6.35;4.22;;;;;;;;;;5016250;28;20046;-42
2021/09/09 05:06:45;;;;;;;3.47;3.17;;;;;;;;;;5014657;28;20022;-43
2021/09/09 05:09:11;;;;;;;5.78;4.22;;;;;;;;;;5020232;28;20806;-42
2021/09/09 05:11:36;;;;;;;5.47;3.55;;;;;;;;;;5018571;28;20014;-40
2021/09/09 05:14:02;;;;;;;5.00;4.45;;;;;;;;;;5017569;28;20018;-40
2021/09/09 05:16:27;;;;;;;7.80;5.18;;;;;;;;;;5018117;28;20021;-42
2021/09/09 05:18:52;;;;;;;7.22;5.75;;;;;;;;;;5014193;28;20096;-41
2021/09/09 05:21:17;;;;;;;5.35;4.30;;;;;;;;;;5017956;28;20025;-40
2021/09/09 05:23:44;;;;;;;40.22;6.55;;;;;;;;;;5012408;28;20101;-41
2021/09/09 05:26:09;;;;;;;7.85;5.05;;;;;;;;;;5012982;28;20049;-41
2021/09/09 05:28:34;;;;;;;7.82;5.65;;;;;;;;;;5023261;28;20491;-45
2021/09/09 05:31:00;;;;;;;7.63;4.53;;;;;;;;;;5022567;28;20026;-41
2021/09/09 05:33:25;;;;;;;4.82;4.38;;;;;;;;;;5024725;28;20449;-41
2021/09/09 05:35:50;;;;;;;7.72;5.30;;;;;;;;;;5021788;28;20467;-41
2021/09/09 05:38:16;;;;;;;8.75;5.90;;;;;;;;;;5017465;28;20018;-41
2021/09/09 05:40:41;;;;;;;7.55;6.70;;;;;;;;;;5017080;28;20105;-41
2021/09/09 05:43:06;;;;;;;10.70;5.72;;;;;;;;;;5017078;28;20079;-42
2021/09/09 05:45:31;;;;;;;8.82;6.43;;;;;;;;;;5018637;28;20039;-43
2021/09/09 05:47:57;;;;;;;6.82;6.20;;;;;;;;;;5020479;28;20025;-43
2021/09/09 05:50:22;;;;;;;14.43;7.90;;;;;;;;;;5019468;28;20019;-43
2021/09/09 05:52:48;;;;;;;9.60;5.05;;;;;;;;;;5021195;28;20021;-41
2021/09/09 05:55:13;;;;;;;9.13;6.15;;;;;;;;;;5016839;28;20473;-45
2021/09/09 05:57:39;;;;;;;9.02;5.13;;;;;;;;;;5019774;28;20027;-42
2021/09/09 06:00:04;;;;;;;8.63;6.22;;;;;;;;;;5017617;28;20037;-43
2021/09/09 06:02:30;;;;;;;7.70;5.80;;;;;;;;;;5016189;28;20064;-42
2021/09/09 06:04:55;;;;;;;8.65;5.45;;;;;;;;;;5017841;28;20493;-44
2021/09/09 06:07:21;;;;;;;9.23;6.10;;;;;;;;;;5016092;28;20868;-40
2021/09/09 06:09:46;;;;;;;24.15;5.88;;;;;;;;;;5021491;28;20029;-41
2021/09/09 06:12:12;;;;;;;8.02;5.85;;;;;;;;;;5014864;28;20084;-41
2021/09/09 06:14:37;;;;;;;23.90;20.83;;;;;;;;;;5018387;28;20102;-44
2021/09/09 06:17:02;;;;;;;16.05;8.60;;;;;;;;;;5017997;28;20161;-42
2021/09/09 06:19:28;;;;;;;20.27;12.82;;;;;;;;;;5009494;28;20070;-46
2021/09/09 06:21:53;;;;;;;40.25;32.15;;;;;;;;;;5015231;28;20119;-40
2021/09/09 06:24:18;;;;;;;29.73;26.70;;;;;;;;;;5020116;28;20018;-43
2021/09/09 06:26:44;;;;;;;27.88;23.08;;;;;;;;;;5022518;28;20056;-40
2021/09/09 06:29:10;;;;;;;20.60;17.30;;;;;;;;;;5017859;28;20029;-41
2021/09/09 06:31:35;;;;;;;17.98;15.93;;;;;;;;;;5016560;28;20021;-43
2021/09/09 06:34:00;;;;;;;15.93;12.95;;;;;;;;;;5022178;28;20018;-41
2021/09/09 06:36:25;;;;;;;16.65;14.95;;;;;;;;;;5016327;28;20025;-42
2021/09/09 06:38:51;;;;;;;15.85;13.45;;;;;;;;;;5019588;28;20052;-41
2021/09/09 06:41:16;;;;;;;21.23;13.70;;;;;;;;;;5020901;28;20104;-41
2021/09/09 06:43:41;;;;;;;11.57;10.30;;;;;;;;;;5019191;28;20524;-43
2021/09/09 06:46:07;;;;;;;14.10;12.43;;;;;;;;;;5016492;28;20472;-43
2021/09/09 06:48:32;;;;;;;14.73;11.10;;;;;;;;;;5015098;28;20092;-43
2021/09/09 06:51:00;;;;;;;10.70;9.60;;;;;;;;;;5013700;28;20110;-42
2021/09/09 06:53:26;;;;;;;13.95;10.80;;;;;;;;;;5014829;28;20026;-42
2021/09/09 06:55:51;;;;;;;16.58;9.77;;;;;;;;;;5013410;28;20022;-40
2021/09/09 06:58:16;;;;;;;15.77;12.50;;;;;;;;;;5013362;28;20104;-38
2021/09/09 07:00:41;;;;;;;15.70;11.05;;;;;;;;;;5017601;28;20038;-41
2021/09/09 07:03:07;;;;;;;18.95;11.02;;;;;;;;;;5014166;28;20074;-39
2021/09/09 07:05:33;;;;;;;39.10;19.17;;;;;;;;;;5019511;28;20396;-41
2021/09/09 07:07:58;;;;;;;27.00;15.63;;;;;;;;;;5019019;28;20018;-39
2021/09/09 07:10:24;;;;;;;16.02;12.10;;;;;;;;;;5017779;28;20021;-40
2021/09/09 07:12:50;;;;;;;22.17;14.63;;;;;;;;;;5014831;28;20025;-39
2021/09/09 07:15:15;;;;;;;21.25;15.80;;;;;;;;;;5017330;28;20686;-39
2021/09/09 07:17:41;;;;;;;32.83;16.13;;;;;;;;;;5018066;28;20435;-41
2021/09/09 07:20:06;;;;;;;17.95;15.68;;;;;;;;;;5022058;28;20491;-39
2021/09/09 07:22:31;;;;;;;26.15;12.32;;;;;;;;;;5018927;28;20477;-39
2021/09/09 07:24:57;;;;;;;17.77;10.57;;;;;;;;;;5016661;28;20755;-39
2021/09/09 07:27:22;;;;;;;12.05;9.82;;;;;;;;;;5012924;28;20098;-39
2021/09/09 07:29:47;;;;;;;18.73;10.63;;;;;;;;;;5017634;28;20528;-38
2021/09/09 07:32:13;;;;;;;20.05;10.75;;;;;;;;;;5015585;28;20030;-38
2021/09/09 07:34:38;;;;;;;24.65;13.00;;;;;;;;;;5021230;28;20073;-38
2021/09/09 07:37:03;;;;;;;22.17;12.10;;;;;;;;;;5021686;28;20428;-38
2021/09/09 07:39:29;;;;;;;27.65;11.23;;;;;;;;;;5021149;28;20473;-39
2021/09/09 07:41:54;;;;;;;21.38;12.52;;;;;;;;;;5014873;28;20102;-38
2021/09/09 07:44:19;;;;;;;15.93;11.70;;;;;;;;;;5012683;28;20385;-41
2021/09/09 07:46:44;;;;;;;18.02;9.63;;;;;;;;;;5019498;28;20026;-41
2021/09/09 07:49:11;;;;;;;27.60;10.88;;;;;;;;;;5012258;28;20493;-42
2021/09/09 07:51:36;;;;;;;14.35;8.80;;;;;;;;;;5011110;28;20088;-42
2021/09/09 07:54:02;;;;;;;16.80;7.88;;;;;;;;;;5012559;28;20577;-40
2021/09/09 07:56:27;;;;;;;12.57;8.10;;;;;;;;;;5018245;28;20040;-41
2021/09/09 07:58:53;;;;;;;14.35;8.75;;;;;;;;;;5021327;28;20031;-41
2021/09/09 08:01:19;;;;;;;12.93;9.35;;;;;;;;;;5017001;28;20401;-45
2021/09/09 08:03:44;;;;;;;17.05;6.80;;;;;;;;;;5013503;28;20054;-43
2021/09/09 08:06:10;;;;;;;8.93;6.53;;;;;;;;;;5018055;28;20060;-45
2021/09/09 08:08:35;;;;;;;11.95;6.63;;;;;;;;;;5017864;28;20231;-44
2021/09/09 08:11:00;;;;;;;31.33;20.63;;;;;;;;;;5016354;28;20452;-47
2021/09/09 08:13:26;;;;;;;30.55;21.70;;;;;;;;;;5016779;28;20480;-46
2021/09/09 08:15:51;;;;;;;24.67;14.65;;;;;;;;;;5016613;28;20026;-43
2021/09/09 08:18:16;;;;;;;18.80;9.88;;;;;;;;;;5016227;28;20025;-43
2021/09/09 08:20:41;;;;;;;19.60;8.07;;;;;;;;;;5015041;28;20256;-44
2021/09/09 08:23:07;;;;;;;64.50;59.42;;;;;;;;;;5010961;28;20816;-41
2021/09/09 08:25:32;;;;;;;16.20;10.43;;;;;;;;;;5021031;28;20021;-43
2021/09/09 08:27:57;;;;;;;31.33;28.27;;;;;;;;;;5016558;28;20030;-47
2021/09/09 08:30:23;;;;;;;31.77;25.85;;;;;;;;;;5011968;28;20433;-43
2021/09/09 08:32:48;;;;;;;20.05;8.40;;;;;;;;;;5019660;28;20393;-44
2021/09/09 08:35:13;;;;;;;15.95;8.20;;;;;;;;;;5015959;28;20044;-42
2021/09/09 08:37:39;;;;;;;11.95;7.00;;;;;;;;;;5018786;28;20018;-44
2021/09/09 08:40:07;;;;;;;11.52;8.10;;;;;;;;;;5015246;28;20473;-41
2021/09/09 08:42:32;;;;;;;8.52;7.63;;;;;;;;;;5016730;28;20448;-45
2021/09/09 08:44:58;;;;;;;9.65;7.85;;;;;;;;;;5014592;28;20076;-42
2021/09/09 08:47:24;;;;;;;12.80;8.02;;;;;;;;;;5018026;28;20048;-40
2021/09/09 08:49:49;;;;;;;18.45;7.85;;;;;;;;;;5016166;28;20401;-41
2021/09/09 08:52:15;;;;;;;13.00;6.68;;;;;;;;;;5017323;28;20577;-44
2021/09/09 08:54:40;;;;;;;15.23;7.45;;;;;;;;;;5021242;28;20028;-43
2021/09/09 08:57:06;;;;;;;10.70;7.07;;;;;;;;;;5018733;28;20013;-46
2021/09/09 08:59:32;;;;;;;22.88;7.00;;;;;;;;;;5017722;28;20017;-44
2021/09/09 09:02:01;;;;;;;15.63;8.63;;;;;;;;;;5016580;28;20135;-41
2021/09/09 09:04:27;;;;;;;11.10;7.22;;;;;;;;;;5017537;28;20117;-42
2021/09/09 09:06:52;;;;;;;21.50;6.75;;;;;;;;;;5024460;28;20116;-43
2021/09/09 09:09:19;;;;;;;14.73;6.78;;;;;;;;;;5023649;28;20058;-41
2021/09/09 09:11:46;;;;;;;21.70;9.38;;;;;;;;;;5022746;28;20021;-43
2021/09/09 09:14:13;;;;;;;14.38;7.85;;;;;;;;;;5021042;28;20017;-40
2021/09/09 09:16:43;;;;;;;17.17;8.23;;;;;;;;;;5022793;28;20092;-41
2021/09/09 09:19:15;;;;;;;11.15;7.82;;;;;;;;;;5014399;28;20028;-42
2021/09/09 09:21:43;;;;;;;17.67;7.88;;;;;;;;;;5015440;28;20472;-42
2021/09/09 09:24:09;;;;;;;10.65;6.55;;;;;;;;;;5022170;28;20025;-44
2021/09/09 09:26:35;;;;;;;13.65;7.35;;;;;;;;;;5019060;28;20028;-45
2021/09/09 09:29:00;;;;;;;10.68;6.85;;;;;;;;;;5019356;28;20354;-44
2021/09/09 09:31:33;;;;;;;11.43;6.20;;;;;;;;;;5020437;28;20038;-42
2021/09/09 09:34:08;;;;;;;35.03;7.38;;;;;;;;;;5012769;28;20465;-43
2021/09/09 09:36:37;;;;;;;16.88;7.95;;;;;;;;;;5009268;28;20137;-42
2021/09/09 09:39:09;;;;;;;15.70;8.77;;;;;;;;;;5015994;28;20073;-41
2021/09/09 09:41:35;;;;;;;8.80;6.53;;;;;;;;;;5018790;28;20052;-46
2021/09/09 09:44:03;;;;;;;6.75;4.97;;;;;;;;;;5019410;28;20109;-43
2021/09/09 09:46:33;;;;;;;12.48;7.32;;;;;;;;;;5022529;28;20025;-43
2021/09/09 09:49:18;;;;;;;9.73;5.97;;;;;;;;;;5014186;28;20020;-43
2021/09/09 09:51:45;;;;;;;11.60;6.65;;;;;;;;;;5013175;28;20025;-42
2021/09/09 09:54:11;;;;;;;16.00;7.53;;;;;;;;;;5013885;28;20331;-45
2021/09/09 09:56:37;;;;;;;16.23;7.53;;;;;;;;;;5014400;28;20025;-48
2021/09/09 09:59:03;;;;;;;23.33;10.15;;;;;;;;;;5018483;28;20539;-41
2021/09/09 10:01:30;;;;;;;26.27;8.50;;;;;;;;;;5011487;28;20030;-41
2021/09/09 10:03:56;;;;;;;10.02;6.13;;;;;;;;;;5018978;28;20103;-39
2021/09/09 10:06:22;;;;;;;11.38;7.35;;;;;;;;;;5022024;28;20025;-40
2021/09/09 10:08:47;;;;;;;12.88;7.55;;;;;;;;;;5016051;28;20060;-40
2021/09/09 10:11:13;;;;;;;11.73;7.63;;;;;;;;;;5016035;28;20026;-42
2021/09/09 10:13:38;;;;;;;10.77;7.90;;;;;;;;;;5015864;28;20025;-44
2021/09/09 10:16:04;;;;;;;12.50;6.63;;;;;;;;;;5021951;28;20065;-41
2021/09/09 10:18:29;;;;;;;16.70;7.15;;;;;;;;;;5017773;28;20591;-42
2021/09/09 10:20:55;;;;;;;7.80;6.40;;;;;;;;;;5016086;28;20074;-42
2021/09/09 10:23:25;;;;;;;12.02;7.00;;;;;;;;;;5013249;28;20029;-41
2021/09/09 10:25:54;;;;;;;11.65;7.25;;;;;;;;;;5019925;28;20029;-44
2021/09/09 10:31:04;;;;;;;9.43;6.60;;;;;;;;;;5016906;28;20038;-43
2021/09/09 10:33:30;;;;;;;11.68;6.53;;;;;;;;;;5008291;28;20093;-44
2021/09/09 10:35:55;;;;;;;9.52;6.45;;;;;;;;;;5012107;28;20030;-45
2021/09/09 10:38:21;;;;;;;15.35;6.60;;;;;;;;;;5016475;28;20021;-46
2021/09/09 10:40:47;;;;;;;17.33;7.43;;;;;;;;;;5017450;28;20466;-44
2021/09/09 10:43:13;;;;;;;7.97;5.97;;;;;;;;;;5019606;28;20389;-42
2021/09/09 10:45:40;;;;;;;8.15;6.30;;;;;;;;;;5020207;28;20492;-43
2021/09/09 10:48:10;;;;;;;11.40;6.90;;;;;;;;;;5016832;28;20265;-43
2021/09/09 10:50:36;;;;;;;16.33;7.53;;;;;;;;;;5015528;28;20049;-41
2021/09/09 10:53:06;;;;;;;9.68;6.35;;;;;;;;;;5021089;28;20776;-42
2021/09/09 10:55:33;;;;;;;8.13;7.30;;;;;;;;;;5021146;28;20022;-41
2021/09/09 10:58:16;;;;;;;17.73;10.20;;;;;;;;;;5018594;28;20033;-41
2021/09/09 11:00:54;;;;;;;21.17;7.90;;;;;;;;;;5014921;28;20537;-40
2021/09/09 11:03:38;;;;;;;23.23;6.40;;;;;;;;;;5016750;28;20534;-39
2021/09/09 11:06:05;;;;;;;11.18;7.68;;;;;;;;;;5011552;28;20389;-40
2021/09/09 11:08:30;;;;;;;15.77;7.43;;;;;;;;;;5017659;28;20022;-40
2021/09/09 11:10:56;;;;;;;12.20;6.80;;;;;;;;;;5012658;28;20022;-42
2021/09/09 11:13:25;;;;;;;21.27;10.10;;;;;;;;;;5018563;28;20480;-42
2021/09/09 11:15:50;;;;;;;17.70;15.15;;;;;;;;;;5013320;28;20629;-46
2021/09/09 11:18:22;;;;;;;13.95;9.50;;;;;;;;;;5020842;28;20060;-44
2021/09/09 11:20:48;;;;;;;14.85;8.20;;;;;;;;;;5021738;28;20436;-44
2021/09/09 11:23:13;;;;;;;16.98;10.60;;;;;;;;;;5013503;28;20022;-44
2021/09/09 11:25:39;;;;;;;15.65;9.48;;;;;;;;;;5006158;28;20025;-45
2021/09/09 11:28:11;;;;;;;15.85;7.65;;;;;;;;;;5010714;28;20739;-45
2021/09/09 11:30:36;;;;;;;17.38;8.35;;;;;;;;;;5019690;28;20030;-45
2021/09/09 11:33:02;;;;;;;24.83;9.98;;;;;;;;;;5019500;28;20053;-41
2021/09/09 11:35:28;;;;;;;9.20;7.32;;;;;;;;;;5021812;28;20021;-44
2021/09/09 11:37:53;;;;;;;24.63;8.68;;;;;;;;;;5011027;28;20156;-44
2021/09/09 11:40:18;;;;;;;15.15;10.52;;;;;;;;;;5017843;28;20021;-42
2021/09/09 11:42:44;;;;;;;13.18;9.23;;;;;;;;;;5016268;28;20473;-43
2021/09/09 11:45:09;;;;;;;15.95;8.05;;;;;;;;;;5023558;28;20057;-43
2021/09/09 11:47:34;;;;;;;26.17;10.10;;;;;;;;;;5017551;28;20021;-43
2021/09/09 11:50:04;;;;;;;10.95;7.82;;;;;;;;;;5018762;28;20026;-42
2021/09/09 11:52:29;;;;;;;27.73;8.07;;;;;;;;;;5023320;28;20028;-41
2021/09/09 11:54:55;;;;;;;22.90;9.88;;;;;;;;;;5018406;28;20104;-42
2021/09/09 11:57:20;;;;;;;22.40;10.10;;;;;;;;;;5013018;28;20038;-45
2021/09/09 11:59:49;;;;;;;14.93;7.43;;;;;;;;;;5013266;28;20461;-44
2021/09/09 12:02:33;;;;;;;17.25;7.68;;;;;;;;;;5016123;28;20022;-41
2021/09/09 12:04:59;;;;;;;11.23;7.40;;;;;;;;;;5007991;28;20045;-42
2021/09/09 12:07:25;;;;;;;19.98;8.43;;;;;;;;;;5011068;28;20026;-42
2021/09/09 12:09:52;;;;;;;12.32;7.57;;;;;;;;;;5015086;28;20159;-45
2021/09/09 12:12:17;;;;;;;12.25;7.25;;;;;;;;;;5020453;28;20500;-42
2021/09/09 12:14:42;;;;;;;11.38;7.78;;;;;;;;;;5020447;28;20021;-44
2021/09/09 12:17:09;;;;;;;17.50;8.63;;;;;;;;;;5020014;28;20033;-44
2021/09/09 12:19:53;;;;;;;24.95;9.50;;;;;;;;;;5017197;28;20037;-42
2021/09/09 12:22:18;;;;;;;17.58;8.80;;;;;;;;;;5014690;28;20655;-43
2021/09/09 12:24:44;;;;;;;15.10;9.70;;;;;;;;;;5016650;28;20025;-45
2021/09/09 12:27:14;;;;;;;19.02;8.40;;;;;;;;;;5022323;28;20478;-45
2021/09/09 12:29:42;;;;;;;8.05;6.50;;;;;;;;;;5019623;28;20123;-43
2021/09/09 12:32:24;;;;;;;9.25;7.18;;;;;;;;;;5015642;28;20124;-44
2021/09/09 12:34:49;;;;;;;9.50;6.63;;;;;;;;;;5022671;28;20026;-46
2021/09/09 12:37:15;;;;;;;26.92;7.72;;;;;;;;;;5012300;28;20666;-44
2021/09/09 12:39:47;;;;;;;22.90;8.18;;;;;;;;;;5016961;28;20021;-45
2021/09/09 12:42:13;;;;;;;15.95;5.75;;;;;;;;;;5011811;28;20022;-45
2021/09/09 12:44:38;;;;;;;19.88;10.52;;;;;;;;;;5018163;28;20389;-46
2021/09/09 12:47:16;;;;;;;10.38;6.03;;;;;;;;;;5021121;28;20018;-43
2021/09/09 12:49:42;;;;;;;7.72;5.47;;;;;;;;;;5021135;28;20014;-44
2021/09/09 12:52:14;;;;;;;8.48;6.43;;;;;;;;;;5021714;28;20070;-45
2021/09/09 12:54:44;;;;;;;7.82;5.65;;;;;;;;;;5016043;28;20123;-42
2021/09/09 12:57:09;;;;;;;18.02;7.45;;;;;;;;;;5014700;28;20053;-43
2021/09/09 12:59:34;;;;;;;16.52;7.55;;;;;;;;;;5015267;28;20056;-43
2021/09/09 13:02:00;;;;;;;11.73;7.80;;;;;;;;;;5014220;28;20104;-43
2021/09/09 13:04:25;;;;;;;22.98;9.85;;;;;;;;;;5012716;28;20033;-44
2021/09/09 13:06:51;;;;;;;11.18;6.35;;;;;;;;;;5015604;28;20103;-41
2021/09/09 13:09:16;;;;;;;11.10;8.25;;;;;;;;;;5020618;28;20732;-42
2021/09/09 13:11:42;;;;;;;11.45;7.38;;;;;;;;;;5013594;28;20480;-44
2021/09/09 13:14:07;;;;;;;14.25;6.03;;;;;;;;;;5010878;28;20017;-45
2021/09/09 13:16:34;;;;;;;13.43;6.90;;;;;;;;;;5012676;28;20026;-45
2021/09/09 13:18:59;;;;;;;18.23;11.80;;;;;;;;;;5012521;28;20027;-43
2021/09/09 13:21:28;;;;;;;28.52;8.88;;;;;;;;;;5018237;28;20400;-43
2021/09/09 13:23:53;;;;;;;15.85;7.30;;;;;;;;;;5019103;28;20021;-44
2021/09/09 13:26:19;;;;;;;11.05;6.70;;;;;;;;;;5019952;28;20032;-42
2021/09/09 13:28:44;;;;;;;11.23;5.57;;;;;;;;;;5015891;28;20479;-43
2021/09/09 13:31:11;;;;;;;15.50;7.07;;;;;;;;;;5016595;28;20022;-44
2021/09/09 13:33:37;;;;;;;20.15;10.23;;;;;;;;;;5012720;28;20018;-43
2021/09/09 13:36:02;;;;;;;22.10;9.90;;;;;;;;;;5015810;28;20363;-44
2021/09/09 13:38:28;;;;;;;14.73;7.38;;;;;;;;;;5011713;28;20105;-44
2021/09/09 13:40:53;;;;;;;14.18;6.45;;;;;;;;;;5021070;28;20035;-45
2021/09/09 13:43:19;;;;;;;14.23;7.88;;;;;;;;;;5016063;28;20021;-44
2021/09/09 13:45:44;;;;;;;12.52;6.05;;;;;;;;;;5017221;28;20092;-42
2021/09/09 13:48:09;;;;;;;9.68;7.25;;;;;;;;;;5023912;28;20489;-44
2021/09/09 13:50:34;;;;;;;12.18;7.28;;;;;;;;;;5019173;28;20022;-44
2021/09/09 13:53:00;;;;;;;9.02;6.80;;;;;;;;;;5019789;28;20017;-43
2021/09/09 13:55:25;;;;;;;9.85;6.28;;;;;;;;;;5018917;28;20025;-42
2021/09/09 13:57:51;;;;;;;17.27;8.82;;;;;;;;;;5019534;28;20026;-41
2021/09/09 14:00:16;;;;;;;9.63;5.93;;;;;;;;;;5013943;28;20052;-42
2021/09/09 14:02:42;;;;;;;13.13;7.70;;;;;;;;;;5013982;28;20116;-42
2021/09/09 14:05:10;;;;;;;11.52;5.93;;;;;;;;;;5020222;28;20125;-41
2021/09/09 14:07:36;;;;;;;11.60;7.03;;;;;;;;;;5014635;28;20133;-43
2021/09/09 14:10:01;;;;;;;19.45;6.80;;;;;;;;;;5010016;28;20112;-41
2021/09/09 14:12:26;;;;;;;27.67;9.25;;;;;;;;;;5018333;28;20010;-44
2021/09/09 14:14:51;;;;;;;12.00;6.93;;;;;;;;;;5016067;28;20017;-42
2021/09/09 14:17:17;;;;;;;13.43;9.02;;;;;;;;;;5023660;28;20053;-43
2021/09/09 14:19:42;;;;;;;17.58;6.53;;;;;;;;;;5024624;28;20028;-47
2021/09/09 14:22:08;;;;;;;11.85;7.07;;;;;;;;;;5022729;28;20032;-42
2021/09/09 14:24:33;;;;;;;24.38;7.05;;;;;;;;;;5022848;28;20028;-41
2021/09/09 14:26:58;;;;;;;17.27;6.90;;;;;;;;;;5021129;28;20373;-43
2021/09/09 14:29:24;;;;;;;9.13;6.43;;;;;;;;;;5012952;28;20072;-42